Time;durP1;ratioP1;P1;durP2;ratioP2;P2;SDS_P1;SDS_P2;PMS_P1;PMS_P2;Temp;Humidity;BMP_temperature;BMP_pressure;BME280_temperature;BME280_humidity;BME280_pressure;Samples;Min_cycle;Max_cycle;Signal;HPM_P1;HPM_P2
2022/04/22 00:02:21;;;;;;;2.20;2.00;;;19.00;49.90;;;;;;4910604;28;99048;-71
2022/04/22 00:04:47;;;;;;;4.20;1.92;;;19.10;50.10;;;;;;4911009;28;97925;-71
2022/04/22 00:07:12;;;;;;;3.45;1.85;;;19.00;50.00;;;;;;4910762;28;100166;-70
2022/04/22 00:09:38;;;;;;;2.50;1.90;;;19.00;50.00;;;;;;4910242;28;98704;-70
2022/04/22 00:12:05;;;;;;;3.13;1.95;;;19.00;50.00;;;;;;4911189;28;100072;-70
2022/04/22 00:14:30;;;;;;;3.08;1.80;;;19.10;50.00;;;;;;4910813;28;98967;-70
2022/04/22 00:16:56;;;;;;;1.83;1.70;;;19.00;50.00;;;;;;4911325;28;99116;-71
2022/04/22 00:19:21;;;;;;;3.15;2.25;;;19.10;50.10;;;;;;4910143;28;99021;-70
2022/04/22 00:21:47;;;;;;;1.80;1.65;;;19.00;50.00;;;;;;4909962;28;99089;-70
2022/04/22 00:24:15;;;;;;;3.92;2.00;;;19.00;50.00;;;;;;4911375;28;98997;-70
2022/04/22 00:26:40;;;;;;;2.10;1.70;;;19.00;50.00;;;;;;4909374;28;100586;-71
2022/04/22 00:29:07;;;;;;;2.58;1.90;;;19.00;50.00;;;;;;4910913;28;98712;-71
2022/04/22 00:31:33;;;;;;;2.90;1.83;;;19.00;50.00;;;;;;4910025;28;99776;-71
2022/04/22 00:33:58;;;;;;;2.78;1.67;;;19.00;50.10;;;;;;4910817;28;98678;-71
2022/04/22 00:36:24;;;;;;;2.90;1.90;;;19.00;50.00;;;;;;4908765;28;100298;-70
2022/04/22 00:38:49;;;;;;;2.75;1.60;;;19.00;50.00;;;;;;4909493;28;101885;-69
2022/04/22 00:41:15;;;;;;;3.90;1.90;;;19.00;50.10;;;;;;4910453;28;99607;-70
2022/04/22 00:43:44;;;;;;;2.92;1.90;;;19.00;50.00;;;;;;4910084;28;98873;-71
2022/04/22 00:46:10;;;;;;;4.38;2.22;;;19.00;50.00;;;;;;4909735;28;100810;-70
2022/04/22 00:48:37;;;;;;;2.25;1.80;;;19.00;50.00;;;;;;4910664;28;99312;-69
2022/04/22 00:51:07;;;;;;;3.08;1.70;;;19.00;50.00;;;;;;4911380;28;98619;-70
2022/04/22 00:53:40;;;;;;;2.22;1.70;;;19.00;50.00;;;;;;4910369;28;98187;-70
2022/04/22 00:56:08;;;;;;;2.67;1.50;;;19.00;50.00;;;;;;4909634;28;100793;-70
2022/04/22 00:58:45;;;;;;;1.88;1.65;;;19.00;50.00;;;;;;4909271;28;99931;-70
2022/04/22 01:01:11;;;;;;;2.17;1.73;;;19.00;50.00;;;;;;4910079;28;99708;-70
2022/04/22 01:03:38;;;;;;;3.83;1.92;;;19.00;50.10;;;;;;4910803;28;99119;-70
2022/04/22 01:11:36;;;;;;;1.90;1.70;;;19.00;50.10;;;;;;4910105;28;98632;-70
2022/04/22 01:14:05;;;;;;;1.67;1.55;;;19.00;50.10;;;;;;4910122;28;99041;-70
2022/04/22 01:16:31;;;;;;;1.98;1.73;;;19.00;50.00;;;;;;4910083;28;99207;-70
2022/04/22 01:18:57;;;;;;;2.85;1.70;;;19.00;50.10;;;;;;4909403;28;99055;-70
2022/04/22 01:21:22;;;;;;;3.10;1.70;;;18.90;50.10;;;;;;4909330;28;98833;-70
2022/04/22 01:23:48;;;;;;;2.95;1.58;;;18.90;50.10;;;;;;4909942;28;98589;-70
2022/04/22 01:26:14;;;;;;;3.10;1.60;;;18.90;50.10;;;;;;4909612;28;101183;-70
2022/04/22 01:28:40;;;;;;;2.42;2.00;;;18.90;50.00;;;;;;4908905;28;99332;-70
2022/04/22 01:31:06;;;;;;;1.90;1.60;;;18.90;50.00;;;;;;4910323;28;99109;-70
2022/04/22 01:33:35;;;;;;;2.95;1.90;;;18.90;50.00;;;;;;4910319;28;98600;-71
2022/04/22 01:36:01;;;;;;;2.47;1.67;;;18.90;50.10;;;;;;4909398;28;99544;-71
2022/04/22 01:38:32;;;;;;;2.65;1.77;;;18.90;50.00;;;;;;4909947;28;98827;-70
2022/04/22 01:40:58;;;;;;;2.45;2.03;;;18.90;50.00;;;;;;4908878;28;99675;-69
2022/04/22 01:43:24;;;;;;;2.28;1.65;;;18.90;50.10;;;;;;4910418;28;98481;-70
2022/04/22 01:45:52;;;;;;;2.47;1.88;;;18.90;50.10;;;;;;4909769;28;99172;-69
2022/04/22 01:48:18;;;;;;;2.35;1.80;;;18.90;50.00;;;;;;4909465;28;100316;-69
2022/04/22 01:50:45;;;;;;;2.65;1.80;;;18.90;50.00;;;;;;4909223;28;101075;-72
2022/04/22 01:53:10;;;;;;;3.72;1.90;;;18.90;50.10;;;;;;4891720;28;100510;-70
2022/04/22 01:55:36;;;;;;;2.88;1.65;;;18.90;50.00;;;;;;4910215;28;104124;-70
2022/04/22 01:58:01;;;;;;;2.35;1.90;;;18.90;50.10;;;;;;4910070;28;99931;-69
2022/04/22 02:00:27;;;;;;;2.95;1.77;;;18.90;50.10;;;;;;4913837;28;98575;-70
2022/04/22 02:02:53;;;;;;;2.35;1.70;;;18.90;50.00;;;;;;4912226;28;98707;-70
2022/04/22 02:05:18;;;;;;;2.80;1.70;;;18.90;50.00;;;;;;4912367;28;111145;-69
2022/04/22 02:07:45;;;;;;;2.60;1.90;;;18.80;50.00;;;;;;4910611;28;98968;-69
2022/04/22 02:10:11;;;;;;;2.53;1.67;;;18.90;50.10;;;;;;4912625;28;98948;-70
2022/04/22 02:12:37;;;;;;;2.17;1.83;;;18.90;50.00;;;;;;4912355;28;99065;-69
2022/04/22 02:15:03;;;;;;;3.05;2.08;;;18.80;51.00;;;;;;4911982;28;99875;-70
2022/04/22 02:17:28;;;;;;;2.28;1.67;;;18.90;50.10;;;;;;4911027;28;99501;-70
2022/04/22 02:19:54;;;;;;;2.10;1.90;;;18.80;50.00;;;;;;4911343;28;98953;-70
2022/04/22 02:22:22;;;;;;;2.20;2.00;;;18.80;50.10;;;;;;4912642;28;99350;-70
2022/04/22 02:24:57;;;;;;;2.20;1.98;;;18.80;50.00;;;;;;4915495;28;100842;-71
2022/04/22 02:30:07;;;;;;;2.67;2.10;;;18.80;50.00;;;;;;4913760;28;99054;-71
2022/04/22 02:32:33;;;;;;;3.47;2.30;;;18.80;51.00;;;;;;4912345;28;98529;-70
2022/04/22 02:34:58;;;;;;;2.72;2.22;;;18.80;50.00;;;;;;4911549;28;107125;-70
2022/04/22 02:37:25;;;;;;;2.72;2.00;;;18.80;50.10;;;;;;4911015;28;105793;-69
2022/04/22 02:39:51;;;;;;;2.40;2.20;;;18.80;50.00;;;;;;4911439;28;99872;-70
2022/04/22 02:47:44;;;;;;;2.70;2.38;;;18.80;50.10;;;;;;4909636;28;99212;-70
2022/04/22 02:50:10;;;;;;;2.58;2.10;;;18.80;50.10;;;;;;4910902;28;100321;-70
2022/04/22 02:52:36;;;;;;;2.47;2.20;;;18.80;50.10;;;;;;4910718;28;98625;-70
2022/04/22 02:55:02;;;;;;;3.05;2.38;;;18.80;50.10;;;;;;4911781;28;99026;-70
2022/04/22 02:57:27;;;;;;;2.47;2.15;;;18.80;50.10;;;;;;4910841;28;99002;-70
2022/04/22 02:59:53;;;;;;;2.40;2.20;;;18.70;50.00;;;;;;4911302;28;98893;-70
2022/04/22 03:02:19;;;;;;;4.28;2.40;;;18.70;50.00;;;;;;4911085;28;99101;-69
2022/04/22 03:04:45;;;;;;;2.47;2.28;;;18.70;50.00;;;;;;4909761;28;102303;-71
2022/04/22 03:07:10;;;;;;;2.35;2.05;;;18.70;50.00;;;;;;4910763;28;100844;-70
2022/04/22 03:09:36;;;;;;;2.75;2.50;;;18.70;50.00;;;;;;4910689;28;100056;-69
2022/04/22 03:12:02;;;;;;;3.05;2.50;;;18.70;50.00;;;;;;4910485;28;98599;-70
2022/04/22 03:14:29;;;;;;;2.40;2.20;;;18.70;50.10;;;;;;4910292;28;99134;-70
2022/04/22 04:24:06;;;;;;;4.47;3.17;;;18.60;50.30;;;;;;4890855;28;99402;-69
2022/04/22 04:26:33;;;;;;;11.10;3.97;;;18.60;50.20;;;;;;4890085;28;100078;-69
2022/04/22 04:28:58;;;;;;;5.25;4.13;;;18.60;50.40;;;;;;4891048;28;99612;-70
2022/04/22 04:31:24;;;;;;;6.78;3.80;;;18.60;50.70;;;;;;4890757;28;98783;-70
2022/04/22 04:33:49;;;;;;;4.82;3.65;;;18.60;50.90;;;;;;4890541;28;109496;-70
2022/04/22 04:36:16;;;;;;;5.57;3.65;;;18.60;50.90;;;;;;4890267;28;99810;-69
2022/04/22 04:38:42;;;;;;;5.07;3.50;;;18.60;51.10;;;;;;4890816;28;98548;-72
2022/04/22 04:41:09;;;;;;;4.97;4.00;;;18.60;50.90;;;;;;4889953;28;98599;-70
2022/04/22 04:43:40;;;;;;;7.40;3.80;;;18.70;50.90;;;;;;4890112;28;99368;-70
2022/04/22 04:46:06;;;;;;;5.60;3.80;;;18.60;50.80;;;;;;4890520;28;100153;-74
2022/04/22 04:48:34;;;;;;;9.25;3.97;;;18.60;50.90;;;;;;4889813;28;98648;-70
2022/04/22 04:51:00;;;;;;;7.60;3.78;;;18.60;51.10;;;;;;4890941;28;98625;-71
2022/04/22 04:53:26;;;;;;;5.85;4.05;;;18.60;51.40;;;;;;4889434;28;101367;-71
2022/04/22 04:55:52;;;;;;;8.10;4.25;;;18.70;51.40;;;;;;4889210;28;101154;-69
2022/04/22 04:58:21;;;;;;;8.10;4.10;;;18.70;51.40;;;;;;4890038;28;98624;-70
2022/04/22 05:00:51;;;;;;;6.18;4.40;;;18.70;52.50;;;;;;4889801;28;98612;-72
2022/04/22 05:03:17;;;;;;;11.23;4.55;;;18.70;51.50;;;;;;4889717;28;100690;-72
2022/04/22 05:05:44;;;;;;;9.60;4.50;;;18.70;51.50;;;;;;4889834;28;99906;-72
2022/04/22 05:08:10;;;;;;;6.47;4.40;;;18.70;51.60;;;;;;4890397;28;98641;-71
2022/04/22 05:10:36;;;;;;;8.43;4.32;;;18.70;51.60;;;;;;4891026;28;97880;-72
2022/04/22 05:13:03;;;;;;;6.13;4.60;;;18.70;51.50;;;;;;4890803;28;100470;-70
2022/04/22 05:15:30;;;;;;;8.90;4.35;;;18.70;51.60;;;;;;4890384;28;100612;-72
2022/04/22 05:17:58;;;;;;;7.93;5.18;;;18.70;51.70;;;;;;4890088;28;99928;-70
2022/04/22 05:20:25;;;;;;;6.22;4.53;;;18.70;51.90;;;;;;4889789;28;98606;-70
2022/04/22 05:22:54;;;;;;;7.38;4.40;;;18.70;51.90;;;;;;4890035;28;100788;-70
2022/04/22 05:25:21;;;;;;;8.23;4.63;;;18.70;51.80;;;;;;4889647;28;99864;-71
2022/04/22 05:27:47;;;;;;;9.40;4.60;;;18.70;51.90;;;;;;4889628;28;98538;-71
2022/04/22 05:33:00;;;;;;;7.47;4.75;;;18.80;51.90;;;;;;4888661;28;98877;-71
2022/04/22 05:35:27;;;;;;;7.38;4.30;;;18.70;51.80;;;;;;4889260;28;100488;-72
2022/04/22 05:38:04;;;;;;;8.85;5.03;;;18.80;52.00;;;;;;4890003;28;99138;-70
2022/04/22 05:40:36;;;;;;;7.10;4.75;;;18.80;52.00;;;;;;4889861;28;98644;-70
2022/04/22 05:43:03;;;;;;;13.93;5.15;;;18.80;52.00;;;;;;4871676;28;100953;-70
2022/04/22 05:45:30;;;;;;;8.18;4.55;;;18.80;52.10;;;;;;4888684;28;100084;-70
2022/04/22 05:47:56;;;;;;;7.18;4.90;;;18.80;51.60;;;;;;4889189;28;98736;-72
2022/04/22 05:50:25;;;;;;;8.10;4.80;;;18.80;51.20;;;;;;4890186;28;99046;-71
2022/04/22 05:52:52;;;;;;;8.52;4.88;;;18.70;50.90;;;;;;4889852;28;99302;-71
2022/04/22 05:55:22;;;;;;;8.80;4.70;;;18.70;50.80;;;;;;4889398;28;100914;-70
2022/04/22 05:57:49;;;;;;;6.47;4.72;;;18.70;50.70;;;;;;4890187;28;98527;-70
2022/04/22 06:00:18;;;;;;;10.52;5.22;;;18.70;50.70;;;;;;4890295;28;97731;-70
2022/04/22 06:02:45;;;;;;;10.88;5.00;;;18.60;50.90;;;;;;4890771;28;102378;-71
2022/04/22 06:05:12;;;;;;;8.15;4.80;;;18.60;50.80;;;;;;4889717;28;99056;-70
2022/04/22 06:07:38;;;;;;;10.63;5.80;;;18.70;50.80;;;;;;4888990;28;99926;-70
2022/04/22 06:12:49;;;;;;;9.70;5.40;;;18.70;51.60;;;;;;4889207;28;98553;-70
2022/04/22 06:15:15;;;;;;;8.65;5.22;;;18.80;51.80;;;;;;4888694;28;99117;-70
2022/04/22 06:17:41;;;;;;;6.43;4.63;;;18.80;51.70;;;;;;4888288;28;98534;-70
2022/04/22 06:20:07;;;;;;;10.07;5.30;;;18.80;51.70;;;;;;4888878;28;99307;-71
2022/04/22 06:22:32;;;;;;;10.40;5.18;;;18.80;51.60;;;;;;4888438;28;99758;-71
2022/04/22 06:24:59;;;;;;;8.45;4.90;;;18.80;51.40;;;;;;4889228;28;98840;-69
2022/04/22 06:27:34;;;;;;;9.40;4.93;;;18.80;51.40;;;;;;4888504;28;99194;-70
2022/04/22 06:30:08;;;;;;;8.15;4.78;;;18.80;51.30;;;;;;4889266;28;99167;-70
2022/04/22 06:32:36;;;;;;;10.25;4.70;;;18.90;51.30;;;;;;4887730;28;101784;-71
2022/04/22 06:35:03;;;;;;;6.35;4.43;;;18.80;51.30;;;;;;4888503;28;101021;-70
2022/04/22 06:37:36;;;;;;;7.00;4.45;;;18.80;51.10;;;;;;4888279;28;99528;-70
2022/04/22 06:45:48;;;;;;;9.38;4.57;;;18.90;51.00;;;;;;4892086;28;98552;-69
2022/04/22 06:48:20;;;;;;;6.75;4.40;;;18.90;51.00;;;;;;4891262;28;99008;-70
2022/04/22 06:50:50;;;;;;;7.90;4.13;;;18.90;50.80;;;;;;4893043;28;98166;-71
2022/04/22 06:53:18;;;;;;;6.40;4.32;;;19.00;50.80;;;;;;4892806;28;100252;-69
2022/04/22 06:55:48;;;;;;;5.90;3.92;;;19.00;50.70;;;;;;4891764;28;100419;-70
2022/04/22 06:58:15;;;;;;;6.40;4.05;;;18.90;50.60;;;;;;4892715;28;99822;-68
2022/04/22 07:00:42;;;;;;;5.57;3.55;;;19.00;50.60;;;;;;4892124;28;99249;-70
2022/04/22 07:03:09;;;;;;;6.45;4.13;;;19.00;50.60;;;;;;4891584;28;99610;-69
2022/04/22 07:05:36;;;;;;;5.93;3.95;;;19.00;50.40;;;;;;4891408;28;99932;-69
2022/04/22 07:08:03;;;;;;;5.43;3.80;;;19.00;50.50;;;;;;4891855;28;98832;-70
2022/04/22 07:10:33;;;;;;;7.00;4.32;;;19.00;50.40;;;;;;4891570;28;99036;-70
2022/04/22 07:12:59;;;;;;;6.85;3.20;;;19.00;50.30;;;;;;4891814;28;100514;-70
2022/04/22 07:15:26;;;;;;;6.35;3.53;;;19.00;50.40;;;;;;4892330;28;99866;-69
2022/04/22 07:17:52;;;;;;;5.15;3.40;;;19.00;50.30;;;;;;4891310;28;99110;-70
2022/04/22 07:20:18;;;;;;;5.47;3.30;;;19.00;50.40;;;;;;4891376;28;99023;-70
2022/04/22 07:22:44;;;;;;;5.07;3.40;;;19.00;50.30;;;;;;4889335;28;100363;-70
2022/04/22 07:25:11;;;;;;;5.95;3.30;;;19.00;50.20;;;;;;4890894;28;100871;-70
2022/04/22 07:27:42;;;;;;;5.72;3.50;;;19.00;50.20;;;;;;4891357;28;99139;-69
2022/04/22 07:30:13;;;;;;;8.18;3.70;;;19.00;50.30;;;;;;4890572;28;99429;-67
2022/04/22 07:32:39;;;;;;;6.13;3.38;;;19.00;50.20;;;;;;4890330;28;101448;-68
2022/04/22 07:35:08;;;;;;;7.05;3.30;;;19.00;50.30;;;;;;4891410;28;98772;-69
2022/04/22 07:37:35;;;;;;;5.20;3.40;;;19.00;50.20;;;;;;4891822;28;99119;-69
2022/04/22 07:40:01;;;;;;;6.10;3.30;;;19.00;50.20;;;;;;4893565;28;98334;-69
2022/04/22 07:42:33;;;;;;;6.30;3.58;;;19.00;50.30;;;;;;4894132;28;100295;-68
2022/04/22 07:47:47;;;;;;;5.88;3.38;;;19.00;50.20;;;;;;4892908;28;99661;-68
2022/04/22 07:50:14;;;;;;;5.43;3.30;;;19.00;50.30;;;;;;4891115;28;98653;-68
2022/04/22 07:52:42;;;;;;;4.68;2.97;;;19.00;50.30;;;;;;4890776;28;99508;-68
2022/04/22 07:55:08;;;;;;;4.45;3.10;;;19.00;50.20;;;;;;4890361;28;101923;-68
2022/04/22 07:57:33;;;;;;;4.80;2.88;;;19.00;50.30;;;;;;4890931;28;98656;-67
2022/04/22 07:59:59;;;;;;;3.67;2.67;;;19.00;50.20;;;;;;4890700;28;99150;-69
2022/04/22 08:02:25;;;;;;;4.10;2.75;;;19.00;50.20;;;;;;4890625;28;99873;-67
2022/04/22 08:04:51;;;;;;;3.67;2.85;;;19.00;50.20;;;;;;4891143;28;99179;-68
2022/04/22 08:07:18;;;;;;;6.30;3.00;;;19.00;50.30;;;;;;4890685;28;98713;-68
2022/04/22 08:09:47;;;;;;;6.20;3.22;;;19.00;50.20;;;;;;4891071;28;98741;-70
2022/04/22 08:12:14;;;;;;;4.25;2.83;;;19.00;50.20;;;;;;4890077;28;100962;-69
2022/04/22 08:14:40;;;;;;;4.38;2.83;;;19.00;50.30;;;;;;4890413;28;102512;-70
2022/04/22 08:17:06;;;;;;;4.45;2.88;;;19.00;50.20;;;;;;4890302;28;98735;-68
2022/04/22 08:19:32;;;;;;;5.63;3.17;;;19.00;50.20;;;;;;4889999;28;99087;-68
2022/04/22 08:21:58;;;;;;;4.03;3.03;;;18.90;50.20;;;;;;4890349;28;100208;-68
2022/04/22 08:24:24;;;;;;;4.20;3.00;;;19.00;50.20;;;;;;4890107;28;100435;-68
2022/04/22 08:26:50;;;;;;;3.05;2.75;;;18.90;50.20;;;;;;4890927;28;98682;-68
2022/04/22 08:29:16;;;;;;;4.60;2.83;;;19.00;50.20;;;;;;4890802;28;98088;-68
2022/04/22 08:31:42;;;;;;;5.72;3.25;;;19.00;50.30;;;;;;4889952;28;100376;-69
2022/04/22 08:34:08;;;;;;;5.38;2.83;;;19.00;50.20;;;;;;4889566;28;101193;-68
2022/04/22 08:36:34;;;;;;;4.10;2.53;;;19.00;50.30;;;;;;4890717;28;99907;-69
2022/04/22 08:38:59;;;;;;;4.13;2.97;;;19.00;50.20;;;;;;4891073;28;98618;-69
2022/04/22 08:41:31;;;;;;;4.72;2.70;;;18.90;50.20;;;;;;4889620;28;100609;-70
2022/04/22 08:43:58;;;;;;;4.25;2.90;;;19.00;50.20;;;;;;4888527;28;100163;-68
2022/04/22 08:51:58;;;;;;;4.20;2.80;;;18.90;50.10;;;;;;4889513;28;98978;-68
2022/04/22 08:54:27;;;;;;;3.45;2.35;;;19.00;50.20;;;;;;4890730;28;99433;-69
2022/04/22 08:56:54;;;;;;;4.13;2.80;;;18.90;50.10;;;;;;4890145;28;98504;-70
2022/04/22 08:59:20;;;;;;;4.97;2.67;;;18.90;50.00;;;;;;4890857;28;98637;-69
2022/04/22 09:01:46;;;;;;;5.75;3.10;;;19.00;50.00;;;;;;4889520;28;100132;-69
2022/04/22 09:04:13;;;;;;;4.93;2.70;;;18.90;50.00;;;;;;4890383;28;99876;-68
2022/04/22 09:06:40;;;;;;;3.08;2.40;;;19.00;50.00;;;;;;4889788;28;98657;-68
2022/04/22 10:47:43;;;;;;;8.00;6.05;;;19.50;49.70;;;;;;4891512;28;98536;-71
2022/04/22 10:50:35;;;;;;;7.75;6.05;;;19.50;49.70;;;;;;4892385;28;98670;-69
2022/04/22 10:53:03;;;;;;;7.05;6.00;;;19.50;49.70;;;;;;4892194;28;98648;-69
2022/04/22 10:55:39;;;;;;;7.88;5.93;;;19.50;49.80;;;;;;4890791;28;101386;-68
2022/04/22 10:58:14;;;;;;;6.28;5.68;;;19.50;49.70;;;;;;4892079;28;101219;-69
2022/04/22 11:00:44;;;;;;;7.40;5.50;;;19.50;49.80;;;;;;4896418;28;99065;-69
2022/04/22 11:03:12;;;;;;;6.53;5.30;;;19.50;49.80;;;;;;4911984;28;98864;-68
2022/04/22 11:05:43;;;;;;;7.10;5.80;;;19.50;49.70;;;;;;4910972;28;101263;-69
2022/04/22 11:08:25;;;;;;;6.53;5.15;;;19.50;49.60;;;;;;4910221;28;100289;-69
2022/04/22 11:10:51;;;;;;;6.50;5.18;;;19.60;49.60;;;;;;4911415;28;98685;-69
2022/04/22 11:13:42;;;;;;;6.90;5.15;;;19.50;49.70;;;;;;4910789;28;98251;-69
2022/04/22 11:16:11;;;;;;;8.50;5.30;;;19.60;49.70;;;;;;4910611;28;100361;-70
2022/04/22 11:18:42;;;;;;;9.57;5.25;;;19.60;49.80;;;;;;4910168;28;99030;-70
2022/04/22 11:21:33;;;;;;;5.78;4.82;;;19.60;49.80;;;;;;4909721;28;99478;-70
2022/04/22 11:23:59;;;;;;;6.38;4.38;;;19.50;49.70;;;;;;4910398;28;98936;-68
2022/04/22 11:26:26;;;;;;;5.75;4.80;;;19.60;49.90;;;;;;4909950;28;99904;-71
2022/04/22 11:28:51;;;;;;;6.82;4.50;;;19.60;49.90;;;;;;4910855;28;100366;-69
2022/04/22 11:31:21;;;;;;;5.22;4.55;;;19.60;49.90;;;;;;4909940;28;98599;-69
2022/04/22 11:33:57;;;;;;;6.28;4.43;;;19.60;50.00;;;;;;4911259;28;98688;-70
2022/04/22 11:36:24;;;;;;;6.78;4.55;;;19.60;50.00;;;;;;4911224;28;101002;-70
2022/04/22 11:38:56;;;;;;;5.50;4.57;;;19.60;50.00;;;;;;4911633;28;99247;-70
2022/04/22 11:41:22;;;;;;;6.27;4.57;;;19.60;49.80;;;;;;4910931;28;99378;-70
2022/04/22 11:43:48;;;;;;;4.72;4.30;;;19.60;49.90;;;;;;4907645;28;98602;-69
2022/04/22 11:46:15;;;;;;;5.18;4.50;;;19.60;49.90;;;;;;4890533;28;100234;-70
2022/04/22 11:48:50;;;;;;;4.95;4.45;;;19.60;49.80;;;;;;4891334;28;100029;-69
2022/04/22 11:51:17;;;;;;;5.30;4.30;;;19.60;49.90;;;;;;4892195;28;99057;-70
2022/04/22 11:53:51;;;;;;;7.47;4.15;;;19.60;49.90;;;;;;4892528;28;98662;-70
2022/04/22 11:56:22;;;;;;;7.45;4.60;;;19.60;49.90;;;;;;4891601;28;100448;-71
2022/04/22 11:58:55;;;;;;;5.78;4.40;;;19.60;49.90;;;;;;4891961;28;99971;-71
2022/04/22 12:06:58;;;;;;;6.70;4.18;;;19.70;50.10;;;;;;4892098;28;98931;-70
2022/04/22 12:09:23;;;;;;;5.82;3.95;;;19.70;50.10;;;;;;4891133;28;100296;-70
2022/04/22 12:11:50;;;;;;;5.32;3.90;;;19.70;50.00;;;;;;4891546;28;99775;-69
2022/04/22 12:14:24;;;;;;;4.45;3.47;;;19.70;50.00;;;;;;4892256;28;98662;-70
2022/04/22 12:17:00;;;;;;;6.22;3.83;;;19.70;50.00;;;;;;4891503;28;100266;-70
2022/04/22 12:19:35;;;;;;;7.32;3.78;;;19.60;50.00;;;;;;4893850;28;99919;-70
2022/04/22 12:22:00;;;;;;;4.53;3.78;;;19.70;50.00;;;;;;4895200;28;98669;-71
2022/04/22 12:24:26;;;;;;;5.65;3.63;;;19.60;49.70;;;;;;4891843;28;98812;-69
2022/04/22 12:26:52;;;;;;;4.38;3.38;;;19.70;49.10;;;;;;4892236;28;99172;-69
2022/04/22 12:29:21;;;;;;;5.30;3.47;;;19.70;48.30;;;;;;4891314;28;99990;-70
2022/04/22 12:31:54;;;;;;;4.75;3.20;;;19.60;47.70;;;;;;4890691;28;99003;-69
2022/04/22 12:34:32;;;;;;;7.88;3.13;;;19.70;47.30;;;;;;4892168;28;98574;-69
2022/04/22 12:37:03;;;;;;;10.13;3.97;;;19.60;46.80;;;;;;4890888;28;101228;-69
2022/04/22 12:39:41;;;;;;;12.07;3.38;;;19.70;46.60;;;;;;4891083;28;100941;-69
2022/04/22 12:42:27;;;;;;;13.00;3.58;;;19.60;46.20;;;;;;4891051;28;98876;-69
2022/04/22 12:53:38;;;;;;;13.80;3.97;;;19.60;46.20;;;;;;4889972;28;98982;-68
2022/04/22 12:56:08;;;;;;;12.13;3.42;;;19.70;46.90;;;;;;4891643;28;97875;-71
2022/04/22 12:58:50;;;;;;;7.47;3.40;;;19.70;46.90;;;;;;4889363;28;100815;-68
2022/04/22 13:01:27;;;;;;;6.95;3.22;;;19.70;46.60;;;;;;4889327;28;100302;-69
2022/04/22 13:03:54;;;;;;;8.10;3.75;;;19.70;46.30;;;;;;4889784;28;99834;-70
2022/04/22 13:06:56;;;;;;;9.13;3.83;;;19.70;46.20;;;;;;4890131;28;98876;-69
2022/04/22 13:09:22;;;;;;;11.02;3.70;;;19.80;46.30;;;;;;4811207;29;100203;-69
2022/04/22 13:11:49;;;;;;;9.73;3.80;;;19.70;45.90;;;;;;4873298;28;100345;-70
2022/04/22 13:14:16;;;;;;;7.18;3.22;;;19.70;45.70;;;;;;4890597;28;98502;-69
2022/04/22 13:16:42;;;;;;;7.97;3.28;;;19.80;45.70;;;;;;4890094;28;98902;-69
2022/04/22 13:19:08;;;;;;;7.78;3.65;;;19.80;45.50;;;;;;4889343;28;99684;-70
2022/04/22 13:21:34;;;;;;;8.60;3.65;;;19.80;45.40;;;;;;4890697;28;99925;-69
2022/04/22 13:24:02;;;;;;;6.10;3.40;;;19.80;45.30;;;;;;4873031;28;99234;-71
2022/04/22 13:26:29;;;;;;;10.07;4.05;;;19.80;45.40;;;;;;4890213;28;99195;-70
2022/04/22 13:28:55;;;;;;;6.57;3.50;;;19.80;46.20;;;;;;4889210;28;100977;-70
2022/04/22 13:31:22;;;;;;;11.18;3.70;;;19.80;45.00;;;;;;4889076;28;101668;-69
2022/04/22 13:33:49;;;;;;;13.05;4.28;;;19.80;45.00;;;;;;4890153;28;99376;-71
2022/04/22 13:36:16;;;;;;;13.75;4.47;;;19.80;44.90;;;;;;4889989;28;99775;-69
2022/04/22 13:38:43;;;;;;;9.52;4.22;;;19.80;45.20;;;;;;4889240;28;103609;-69
2022/04/22 13:41:09;;;;;;;8.68;3.88;;;19.80;45.10;;;;;;4888633;28;99857;-70
2022/04/22 13:43:35;;;;;;;8.23;4.15;;;19.80;44.90;;;;;;4889219;28;99153;-70
2022/04/22 13:54:17;;;;;;;10.07;4.20;;;19.70;44.70;;;;;;4891706;28;99702;-71
2022/04/22 13:56:43;;;;;;;10.50;4.57;;;19.70;44.70;;;;;;4893365;28;99055;-70
2022/04/22 13:59:08;;;;;;;8.48;4.25;;;19.70;44.60;;;;;;4893788;28;99752;-71
2022/04/22 14:01:36;;;;;;;8.18;4.30;;;19.70;44.50;;;;;;4895887;28;100120;-69
2022/04/22 14:04:03;;;;;;;9.23;4.20;;;19.70;44.60;;;;;;4893216;28;99054;-69
2022/04/22 14:06:29;;;;;;;12.30;4.70;;;19.70;44.20;;;;;;4894306;28;98992;-67
2022/04/22 14:08:55;;;;;;;13.38;4.60;;;19.70;45.30;;;;;;4891896;28;100963;-68
2022/04/22 14:11:22;;;;;;;10.80;4.32;;;19.70;44.40;;;;;;4892263;28;100285;-71
2022/04/22 14:13:47;;;;;;;14.07;4.80;;;19.70;44.40;;;;;;4892362;28;99198;-69
2022/04/22 14:16:13;;;;;;;9.10;4.75;;;19.70;44.50;;;;;;4892471;28;98668;-70
2022/04/22 14:18:38;;;;;;;9.15;4.53;;;19.70;44.60;;;;;;4891136;28;101042;-70
2022/04/22 14:21:04;;;;;;;6.47;4.22;;;19.70;44.50;;;;;;4891118;28;100784;-69
2022/04/22 14:23:30;;;;;;;8.05;4.40;;;19.70;44.50;;;;;;4891344;28;98944;-70
2022/04/22 14:25:57;;;;;;;6.95;3.88;;;19.70;44.40;;;;;;4892473;28;98984;-70
2022/04/22 14:28:25;;;;;;;8.43;4.10;;;19.70;44.20;;;;;;4892296;28;99741;-70
2022/04/22 14:30:52;;;;;;;5.38;4.15;;;19.70;44.20;;;;;;4873654;28;101862;-69
2022/04/22 14:33:18;;;;;;;10.63;4.15;;;19.70;44.20;;;;;;4891913;28;98835;-71
2022/04/22 14:35:45;;;;;;;16.33;4.75;;;19.80;44.40;;;;;;4892196;28;97883;-71
2022/04/22 14:38:12;;;;;;;18.05;4.43;;;19.80;44.70;;;;;;4891968;28;100254;-72
2022/04/22 14:40:38;;;;;;;9.52;4.40;;;19.90;44.80;;;;;;4891523;28;98909;-70
2022/04/22 14:43:06;;;;;;;14.65;4.47;;;19.90;44.70;;;;;;4892190;28;99963;-70
2022/04/22 14:45:35;;;;;;;10.27;4.15;;;19.90;44.60;;;;;;4890524;28;98950;-69
2022/04/22 14:48:01;;;;;;;7.60;4.10;;;20.00;44.70;;;;;;4891821;28;100554;-70
2022/04/22 14:50:27;;;;;;;9.88;4.30;;;20.00;44.80;;;;;;4891556;28;99108;-70
2022/04/22 14:52:54;;;;;;;10.07;4.80;;;20.00;45.60;;;;;;4891980;28;98700;-70
2022/04/22 14:55:21;;;;;;;7.35;4.32;;;20.00;44.60;;;;;;4891947;28;98668;-70
2022/04/22 14:57:47;;;;;;;11.80;4.50;;;20.10;44.90;;;;;;4891317;28;100913;-71
2022/04/22 15:00:13;;;;;;;9.77;4.10;;;20.10;44.90;;;;;;4892197;28;100698;-71
2022/04/22 15:02:39;;;;;;;9.07;4.30;;;20.10;44.80;;;;;;4891646;28;99103;-70
2022/04/22 15:05:08;;;;;;;8.02;4.60;;;20.10;44.80;;;;;;4891715;28;98848;-70
2022/04/22 15:07:34;;;;;;;21.60;5.03;;;20.10;44.90;;;;;;4890850;28;100980;-69
2022/04/22 15:10:04;;;;;;;11.00;4.30;;;20.10;44.90;;;;;;4891608;28;100767;-69
2022/04/22 15:12:30;;;;;;;9.60;4.40;;;20.10;44.80;;;;;;4892312;28;98785;-68
2022/04/22 15:14:56;;;;;;;16.27;4.38;;;20.10;44.90;;;;;;4891538;28;98746;-69
2022/04/22 15:24:09;;;;;;;9.80;4.63;;;20.10;44.90;;;;;;4890277;28;100508;-68
2022/04/22 15:25:39;;;;;;;8.57;4.72;;;20.20;44.90;;;;;;4892169;28;97901;-70
2022/04/22 15:28:05;;;;;;;11.02;4.82;;;20.20;44.90;;;;;;4890369;28;100062;-70
2022/04/22 15:31:02;;;;;;;8.93;4.90;;;20.10;44.90;;;;;;4890861;28;100136;-70
2022/04/22 15:33:31;;;;;;;12.88;4.85;;;20.20;44.90;;;;;;4891232;28;99587;-70
2022/04/22 15:36:01;;;;;;;7.28;4.47;;;20.20;45.10;;;;;;4891100;28;98992;-71
2022/04/22 15:38:43;;;;;;;12.85;7.43;;;20.10;45.10;;;;;;4891048;28;100387;-71
2022/04/22 15:41:20;;;;;;;26.38;22.08;;;20.20;45.20;;;;;;4892364;28;100586;-69
2022/04/22 15:43:50;;;;;;;174.88;141.93;;;20.20;45.40;;;;;;4895624;28;98503;-69
2022/04/22 15:46:17;;;;;;;91.22;76.90;;;20.30;46.80;;;;;;4891781;28;98958;-71
2022/04/22 15:48:43;;;;;;;148.68;129.00;;;20.30;46.50;;;;;;4891139;28;99856;-71
2022/04/22 15:51:09;;;;;;;124.80;109.18;;;20.40;47.50;;;;;;4890340;28;101689;-71
2022/04/22 15:53:36;;;;;;;144.32;96.65;;;20.50;48.30;;;;;;4889907;28;99040;-70
2022/04/22 15:56:04;;;;;;;101.45;56.92;;;20.50;48.30;;;;;;4890333;28;99175;-70
2022/04/22 15:58:30;;;;;;;122.47;48.88;;;20.60;47.60;;;;;;4889970;28;101411;-74
2022/04/22 16:00:56;;;;;;;104.55;41.95;;;20.70;47.30;;;;;;4890175;28;101134;-72
2022/04/22 16:03:22;;;;;;;75.95;37.85;;;20.80;46.70;;;;;;4889962;28;98923;-70
2022/04/22 16:05:50;;;;;;;99.65;79.03;;;20.80;46.50;;;;;;4891030;28;99034;-70
2022/04/22 16:08:16;;;;;;;117.90;98.82;;;20.80;47.20;;;;;;4888935;28;100665;-70
2022/04/22 16:10:42;;;;;;;175.05;145.30;;;20.80;47.00;;;;;;4888982;28;99604;-71
2022/04/22 16:15:53;;;;;;;189.52;155.45;;;20.90;46.80;;;;;;4888591;28;98116;-70
2022/04/22 16:18:20;;;;;;;131.98;112.28;;;20.90;46.60;;;;;;4889560;28;100720;-69
2022/04/22 16:20:46;;;;;;;110.43;94.03;;;20.90;46.10;;;;;;4888330;28;100172;-70
2022/04/22 16:23:12;;;;;;;86.75;72.80;;;20.90;45.80;;;;;;4889875;28;99849;-69
2022/04/22 16:25:38;;;;;;;69.30;56.50;;;20.90;45.50;;;;;;4888943;28;98674;-70
2022/04/22 16:28:05;;;;;;;59.15;47.40;;;20.90;45.30;;;;;;4872047;28;100907;-71
2022/04/22 16:30:31;;;;;;;45.55;36.78;;;20.90;45.10;;;;;;4888911;28;100005;-70
2022/04/22 16:32:59;;;;;;;34.88;29.33;;;20.90;44.90;;;;;;4889105;28;98666;-69
2022/04/22 16:35:26;;;;;;;28.98;23.63;;;20.80;44.70;;;;;;4890178;28;98575;-71